createdAt,value
2019-06-20T00:02:15.150Z,0.20
2019-06-20T00:04:43.970Z,0.20
2019-06-20T00:07:12.713Z,0.20
2019-06-20T00:09:41.468Z,0.20
2019-06-20T00:12:10.253Z,0.77
2019-06-20T00:14:39.045Z,0.20
2019-06-20T00:17:07.867Z,0.20
2019-06-20T00:19:36.660Z,0.20
2019-06-20T00:22:05.438Z,0.40
2019-06-20T00:24:34.305Z,0.30
2019-06-20T00:27:03.052Z,0.20
2019-06-20T00:29:31.851Z,0.20
2019-06-20T00:32:00.751Z,0.20
2019-06-20T00:34:29.597Z,0.20
2019-06-20T00:36:58.337Z,0.20
2019-06-20T00:39:27.117Z,1.17
2019-06-20T00:41:55.882Z,0.20
2019-06-20T00:44:24.677Z,0.20
2019-06-20T00:46:53.418Z,0.20
2019-06-20T00:49:22.186Z,0.20
2019-06-20T00:51:51.070Z,0.20
2019-06-20T00:54:19.863Z,0.40
2019-06-20T00:56:48.606Z,0.20
2019-06-20T00:59:17.365Z,0.20
2019-06-20T01:01:46.099Z,0.20
2019-06-20T01:04:14.915Z,0.75
2019-06-20T01:06:43.670Z,0.20
2019-06-20T01:09:12.461Z,0.20
2019-06-20T01:11:41.229Z,1.27
2019-06-20T01:14:10.009Z,0.20
2019-06-20T01:16:38.750Z,0.20
2019-06-20T01:19:07.518Z,0.20
2019-06-20T01:21:36.272Z,0.20
2019-06-20T01:24:05.377Z,0.20
2019-06-20T01:26:34.118Z,0.20
2019-06-20T01:29:02.851Z,0.30
2019-06-20T01:31:31.653Z,0.20
2019-06-20T01:34:00.529Z,0.30
2019-06-20T01:36:29.269Z,0.20
2019-06-20T01:38:58.025Z,0.30
2019-06-20T01:41:26.799Z,0.20
2019-06-20T01:43:55.560Z,0.27
2019-06-20T01:46:24.319Z,0.20
2019-06-20T01:48:53.059Z,0.20
2019-06-20T01:51:21.866Z,0.20
2019-06-20T01:53:50.675Z,0.20
2019-06-20T01:56:19.408Z,0.20
2019-06-20T01:58:48.213Z,0.20
2019-06-20T02:01:17.197Z,0.20
2019-06-20T02:03:46.012Z,0.20
2019-06-20T02:06:14.743Z,0.20
2019-06-20T02:08:43.629Z,0.20
2019-06-20T02:11:12.536Z,0.20
2019-06-20T02:13:41.337Z,0.20
2019-06-20T02:16:10.171Z,0.20
2019-06-20T02:18:39.220Z,0.20
2019-06-20T02:21:08.139Z,0.20
2019-06-20T02:23:36.890Z,0.20
2019-06-20T02:26:06.340Z,0.20
2019-06-20T02:28:35.040Z,0.30
2019-06-20T02:31:03.767Z,0.40
2019-06-20T02:33:32.545Z,0.20
2019-06-20T02:36:01.432Z,0.20
2019-06-20T02:38:30.158Z,0.20
2019-06-20T02:40:58.910Z,0.20
2019-06-20T02:43:28.143Z,0.20
2019-06-20T02:45:56.886Z,0.30
2019-06-20T02:48:25.614Z,0.20
2019-06-20T02:50:54.467Z,0.20
2019-06-20T02:53:23.192Z,0.30
2019-06-20T02:55:51.968Z,1.43
2019-06-20T02:58:20.714Z,1.05
2019-06-20T03:00:58.253Z,0.20
2019-06-20T03:03:28.609Z,0.20
2019-06-20T03:05:59.497Z,0.20
2019-06-20T03:08:28.500Z,0.20
2019-06-20T03:10:57.254Z,0.77
2019-06-20T03:13:26.308Z,0.20
2019-06-20T03:15:55.081Z,0.20
2019-06-20T03:18:23.859Z,0.20
2019-06-20T03:20:52.634Z,0.20
2019-06-20T03:23:21.378Z,0.20
2019-06-20T03:25:50.192Z,0.20
2019-06-20T03:28:18.940Z,0.20
2019-06-20T03:30:47.714Z,0.20
2019-06-20T03:33:16.584Z,0.20
2019-06-20T03:35:45.322Z,0.20
2019-06-20T03:38:14.107Z,0.20
2019-06-20T03:40:43.032Z,0.70
2019-06-20T03:43:11.766Z,0.20
2019-06-20T03:45:40.498Z,0.20
2019-06-20T03:48:09.259Z,0.20
2019-06-20T03:50:38.022Z,0.87
2019-06-20T03:53:06.755Z,0.20
2019-06-20T03:55:35.579Z,0.20
2019-06-20T03:58:05.858Z,0.57
2019-06-20T04:00:36.296Z,0.20
2019-06-20T04:03:06.013Z,0.20
2019-06-20T04:05:35.376Z,0.20
2019-06-20T04:08:04.164Z,0.20
2019-06-20T04:10:36.859Z,0.20
2019-06-20T04:13:07.715Z,0.33
2019-06-20T04:15:36.192Z,0.20
2019-06-20T04:18:05.005Z,0.20
2019-06-20T04:20:35.253Z,0.20
2019-06-20T04:23:05.060Z,0.20
2019-06-20T04:25:33.883Z,0.20
2019-06-20T04:28:02.701Z,0.30
2019-06-20T04:30:31.463Z,0.20
2019-06-20T04:33:00.293Z,0.20
2019-06-20T04:35:29.327Z,0.20
2019-06-20T04:37:58.147Z,1.40
2019-06-20T04:40:27.490Z,0.20
2019-06-20T04:42:56.380Z,0.20
2019-06-20T04:45:35.025Z,0.20
2019-06-20T04:47:57.928Z,0.20
2019-06-20T04:50:26.658Z,0.20
2019-06-20T04:52:55.430Z,0.20
2019-06-20T04:55:24.453Z,0.20
2019-06-20T04:57:53.380Z,1.23
2019-06-20T05:00:22.167Z,0.20
2019-06-20T05:02:50.913Z,0.20
2019-06-20T05:05:19.700Z,0.20
2019-06-20T05:07:48.497Z,0.20
2019-06-20T05:10:17.367Z,0.20
2019-06-20T05:12:51.547Z,0.20
2019-06-20T05:15:20.492Z,0.20
2019-06-20T05:17:49.500Z,0.20
2019-06-20T05:20:18.538Z,0.93
2019-06-20T05:22:47.482Z,0.20
2019-06-20T05:25:16.732Z,0.20
2019-06-20T05:27:46.140Z,0.30
2019-06-20T05:30:15.527Z,0.40
2019-06-20T05:32:44.405Z,0.20
2019-06-20T05:35:14.058Z,0.30
2019-06-20T05:37:43.304Z,0.20
2019-06-20T05:40:12.940Z,0.20
2019-06-20T05:42:42.123Z,0.20
2019-06-20T05:45:13.970Z,0.20
2019-06-20T05:47:43.855Z,0.87
2019-06-20T05:50:15.686Z,0.20
2019-06-20T05:52:44.814Z,0.20
2019-06-20T05:55:13.975Z,0.30
2019-06-20T05:57:43.198Z,0.20
2019-06-20T06:00:14.232Z,0.40
2019-06-20T06:02:43.158Z,0.20
2019-06-20T06:05:12.921Z,0.20
2019-06-20T06:07:44.246Z,0.20
2019-06-20T06:10:14.157Z,0.20
2019-06-20T06:12:43.204Z,0.20
2019-06-20T06:15:12.835Z,0.20
2019-06-20T06:17:42.099Z,0.20
2019-06-20T06:20:13.104Z,0.93
2019-06-20T06:22:44.649Z,0.20
2019-06-20T06:25:13.912Z,0.20
2019-06-20T06:27:43.039Z,0.20
2019-06-20T06:30:13.690Z,0.23
2019-06-20T06:32:42.774Z,0.20
2019-06-20T06:35:12.335Z,0.20
2019-06-20T06:37:41.498Z,0.30
2019-06-20T06:40:13.355Z,0.20
2019-06-20T06:42:42.282Z,0.30
2019-06-20T06:45:14.382Z,2.47
2019-06-20T06:47:43.715Z,0.20
2019-06-20T06:50:14.232Z,0.33
2019-06-20T06:52:46.434Z,0.20
2019-06-20T06:55:15.893Z,0.20
2019-06-20T06:57:45.117Z,0.30
2019-06-20T07:00:16.877Z,0.20
2019-06-20T07:02:45.727Z,0.20
2019-06-20T07:05:14.832Z,0.30
2019-06-20T07:07:43.877Z,0.30
2019-06-20T07:10:13.414Z,0.20
2019-06-20T07:12:42.475Z,0.20
2019-06-20T07:15:13.714Z,0.20
2019-06-20T07:17:42.585Z,0.20
2019-06-20T07:20:15.275Z,0.30
2019-06-20T07:22:43.784Z,0.20
2019-06-20T07:25:13.008Z,0.20
2019-06-20T07:27:42.516Z,0.20
2019-06-20T07:30:12.889Z,0.30
2019-06-20T07:32:42.202Z,0.20
2019-06-20T07:35:11.691Z,0.20
2019-06-20T07:37:40.830Z,0.20
2019-06-20T07:40:11.816Z,0.20
2019-06-20T07:42:41.199Z,0.30
2019-06-20T07:45:11.970Z,0.20
2019-06-20T07:47:41.125Z,0.30
2019-06-20T07:50:12.387Z,0.20
2019-06-20T07:52:41.420Z,0.20
2019-06-20T07:55:10.917Z,0.20
2019-06-20T07:57:39.920Z,0.20
2019-06-20T08:00:11.191Z,0.20
2019-06-20T08:02:40.030Z,0.30
2019-06-20T08:05:09.016Z,0.37
2019-06-20T08:07:38.006Z,0.20
2019-06-20T08:10:15.619Z,0.87
2019-06-20T08:12:44.687Z,0.70
2019-06-20T08:15:15.992Z,0.30
2019-06-20T08:17:45.378Z,0.60
2019-06-20T08:20:15.530Z,0.30
2019-06-20T08:22:44.662Z,0.20
2019-06-20T08:25:13.916Z,0.40
2019-06-20T08:27:53.141Z,0.47
2019-06-20T08:30:30.848Z,0.70
2019-06-20T08:33:03.565Z,0.30
2019-06-20T08:35:32.238Z,0.30
2019-06-20T08:38:03.598Z,0.30
2019-06-20T08:40:42.106Z,0.57
2019-06-20T08:43:11.054Z,0.78
2019-06-20T08:45:42.548Z,0.93
2019-06-20T08:48:11.763Z,1.97
2019-06-20T08:50:42.419Z,2.20
2019-06-20T08:53:11.663Z,0.87
2019-06-20T08:55:40.521Z,0.30
2019-06-20T08:58:09.439Z,0.30
2019-06-20T09:00:40.833Z,0.50
2019-06-20T09:03:09.939Z,0.40
2019-06-20T09:05:38.934Z,0.30
2019-06-20T09:08:11.360Z,0.20
2019-06-20T09:10:42.703Z,0.20
2019-06-20T09:13:13.283Z,0.30
2019-06-20T09:15:43.815Z,0.20
2019-06-20T09:18:12.719Z,0.20
2019-06-20T09:20:41.927Z,0.60
2019-06-20T09:23:10.914Z,0.20
2019-06-20T09:25:40.033Z,0.20
2019-06-20T09:28:09.096Z,1.13
2019-06-20T09:30:38.909Z,0.30
2019-06-20T09:33:10.058Z,28.57
2019-06-20T09:35:38.873Z,27.97
2019-06-20T09:38:08.164Z,29.70
2019-06-20T09:40:37.120Z,32.13
2019-06-20T09:43:06.296Z,31.10
2019-06-20T09:45:35.295Z,27.37
2019-06-20T09:48:07.386Z,29.77
2019-06-20T09:50:37.901Z,31.40
2019-06-20T09:53:06.893Z,29.20
2019-06-20T09:55:36.329Z,29.27
2019-06-20T09:58:06.371Z,29.07
2019-06-20T10:00:36.102Z,28.10
2019-06-20T10:03:06.539Z,30.30
2019-06-20T10:05:37.684Z,28.00
2019-06-20T10:08:06.690Z,29.53
2019-06-20T10:10:36.312Z,30.03
2019-06-20T10:13:05.197Z,30.23
2019-06-20T10:15:37.400Z,31.33
2019-06-20T10:18:06.914Z,29.27
2019-06-20T10:20:38.641Z,29.70
2019-06-20T10:23:09.389Z,29.30
2019-06-20T10:25:39.269Z,26.23
2019-06-20T10:28:08.430Z,26.87
2019-06-20T10:30:39.146Z,25.50
2019-06-20T10:33:08.054Z,24.03
2019-06-20T10:35:37.173Z,24.85
2019-06-20T10:38:06.158Z,24.80
2019-06-20T10:40:34.986Z,23.07
2019-06-20T10:43:05.514Z,25.00
2019-06-20T10:45:39.430Z,23.70
2019-06-20T10:48:08.637Z,24.97
2019-06-20T10:50:37.663Z,21.17
2019-06-20T10:53:06.675Z,23.40
2019-06-20T10:55:36.201Z,21.80
2019-06-20T10:58:06.277Z,23.13
2019-06-20T11:00:36.033Z,21.77
2019-06-20T11:03:06.205Z,19.20
2019-06-20T11:05:35.912Z,16.80
2019-06-20T11:08:07.062Z,17.52
2019-06-20T11:10:38.651Z,16.87
2019-06-20T11:13:08.687Z,18.30
2019-06-20T11:15:38.956Z,18.13
2019-06-20T11:18:08.250Z,17.47
2019-06-20T11:20:37.817Z,13.50
2019-06-20T11:23:07.958Z,15.90
2019-06-20T11:25:38.340Z,14.80
2019-06-20T11:28:07.766Z,15.50
2019-06-20T11:30:53.521Z,14.70
2019-06-20T11:33:08.916Z,13.10
2019-06-20T11:35:39.225Z,14.90
2019-06-20T11:38:08.811Z,19.00
2019-06-20T11:40:38.561Z,24.03
2019-06-20T11:43:08.754Z,14.07
2019-06-20T11:45:38.913Z,12.63
2019-06-20T11:48:08.877Z,13.20
2019-06-20T11:50:38.220Z,11.17
2019-06-20T11:53:07.220Z,10.90
2019-06-20T11:55:37.052Z,9.90
2019-06-20T11:58:06.167Z,11.00
2019-06-20T12:00:40.781Z,10.20
2019-06-20T12:03:09.664Z,10.60
2019-06-20T12:05:39.815Z,10.67
2019-06-20T12:08:09.329Z,11.30
2019-06-20T12:10:39.274Z,10.87
2019-06-20T12:13:08.506Z,10.93
2019-06-20T12:15:39.396Z,10.07
2019-06-20T12:18:10.400Z,11.03
2019-06-20T12:20:51.221Z,11.90
2019-06-20T12:23:31.406Z,11.12
2019-06-20T12:26:00.442Z,11.53
2019-06-20T12:28:30.271Z,11.20
2019-06-20T12:31:15.859Z,12.07
2019-06-20T12:33:39.690Z,13.40
2019-06-20T12:36:12.360Z,12.90
2019-06-20T12:38:44.200Z,12.63
2019-06-20T12:41:13.321Z,12.65
2019-06-20T12:43:42.351Z,11.43
2019-06-20T12:46:11.549Z,10.13
2019-06-20T12:48:41.261Z,12.10
2019-06-20T12:51:11.152Z,11.00
2019-06-20T12:53:40.460Z,13.40
2019-06-20T12:56:10.985Z,11.63
2019-06-20T12:58:41.074Z,11.80
2019-06-20T13:01:11.151Z,9.50
2019-06-20T13:03:40.524Z,8.60
2019-06-20T13:06:09.687Z,8.67
2019-06-20T13:08:39.027Z,9.67
2019-06-20T13:11:09.382Z,6.90
2019-06-20T13:13:39.379Z,7.00
2019-06-20T13:16:08.795Z,7.70
2019-06-20T13:18:37.560Z,6.70
2019-06-20T13:21:06.428Z,5.90
2019-06-20T13:23:35.373Z,5.67
2019-06-20T13:26:04.716Z,6.13
2019-06-20T13:28:33.721Z,4.90
2019-06-20T13:31:04.203Z,5.63
2019-06-20T13:33:33.737Z,6.17
2019-06-20T13:36:02.956Z,6.40
2019-06-20T13:38:32.279Z,4.80
2019-06-20T13:41:01.215Z,4.92
2019-06-20T13:43:31.525Z,5.00
2019-06-20T13:46:00.524Z,4.93
2019-06-20T13:48:29.524Z,5.03
2019-06-20T13:51:11.880Z,4.10
2019-06-20T13:53:42.674Z,5.53
2019-06-20T13:56:12.754Z,4.58
2019-06-20T13:58:42.316Z,4.70
2019-06-20T14:01:12.161Z,4.78
2019-06-20T14:03:43.620Z,4.07
2019-06-20T14:06:11.997Z,4.83
2019-06-20T14:08:42.397Z,4.63
2019-06-20T14:11:11.535Z,4.08
2019-06-20T14:13:41.599Z,4.43
2019-06-20T14:16:11.101Z,4.27
2019-06-20T14:18:42.567Z,3.80
2019-06-20T14:21:10.576Z,4.22
2019-06-20T14:23:41.009Z,4.13
2019-06-20T14:26:10.233Z,4.10
2019-06-20T14:28:39.221Z,4.70
2019-06-20T14:31:08.078Z,4.70
2019-06-20T14:33:36.940Z,4.70
2019-06-20T14:36:06.010Z,4.83
2019-06-20T14:38:34.869Z,3.70
2019-06-20T14:41:03.811Z,4.10
2019-06-20T14:43:32.671Z,4.67
2019-06-20T14:46:01.674Z,4.00
2019-06-20T14:48:30.630Z,4.00
2019-06-20T14:50:59.672Z,4.90
2019-06-20T14:53:28.618Z,4.33
2019-06-20T14:55:57.536Z,4.30
2019-06-20T14:58:26.424Z,4.05
2019-06-20T15:00:55.600Z,4.90
2019-06-20T15:03:24.622Z,5.13
2019-06-20T15:05:54.649Z,5.40
2019-06-20T15:08:24.014Z,4.10
2019-06-20T15:10:53.997Z,6.17
2019-06-20T15:13:23.271Z,5.90
2019-06-20T15:15:53.395Z,5.30
2019-06-20T15:18:23.050Z,4.80
2019-06-20T15:20:55.656Z,4.87
2019-06-20T15:23:22.717Z,5.12
2019-06-20T15:25:52.106Z,5.10
2019-06-20T15:28:21.136Z,5.25
2019-06-20T15:30:50.869Z,4.23
2019-06-20T15:33:24.146Z,4.00
2019-06-20T15:35:53.514Z,4.73
2019-06-20T15:38:23.330Z,5.30
2019-06-20T15:40:53.384Z,5.10
2019-06-20T15:43:23.377Z,4.30
2019-06-20T15:45:55.755Z,4.10
2019-06-20T15:48:25.316Z,4.50
2019-06-20T15:50:54.177Z,5.00
2019-06-20T15:53:23.492Z,4.03
2019-06-20T15:55:52.445Z,4.40
2019-06-20T15:58:21.284Z,4.47
2019-06-20T16:00:50.137Z,4.63
2019-06-20T16:03:18.966Z,4.20
2019-06-20T16:05:48.038Z,5.10
2019-06-20T16:08:17.138Z,4.67
2019-06-20T16:10:46.230Z,3.80
2019-06-20T16:13:15.183Z,3.75
2019-06-20T16:15:44.018Z,3.20
2019-06-20T16:18:13.087Z,2.97
2019-06-20T16:20:41.958Z,2.87
2019-06-20T16:23:10.792Z,3.17
2019-06-20T16:25:39.667Z,3.47
2019-06-20T16:28:08.435Z,3.90
2019-06-20T16:30:37.280Z,3.40
2019-06-20T16:33:06.096Z,3.03
2019-06-20T16:35:35.205Z,2.90
2019-06-20T16:38:04.060Z,2.13
2019-06-20T16:40:47.531Z,2.57
2019-06-20T16:43:16.410Z,2.30
2019-06-20T16:45:45.825Z,3.20
2019-06-20T16:48:14.664Z,2.60
2019-06-20T16:50:43.521Z,2.17
2019-06-20T16:53:12.624Z,2.60
2019-06-20T16:55:41.578Z,2.30
2019-06-20T16:58:13.467Z,1.73
2019-06-20T17:00:42.680Z,2.50
2019-06-20T17:03:11.771Z,2.13
2019-06-20T17:05:40.834Z,2.10
2019-06-20T17:08:09.842Z,2.10
2019-06-20T17:10:38.767Z,2.00
2019-06-20T17:13:09.957Z,1.83
2019-06-20T17:15:38.869Z,1.57
2019-06-20T17:18:09.235Z,1.67
2019-06-20T17:20:38.073Z,2.10
2019-06-20T17:23:06.993Z,2.03
2019-06-20T17:25:35.853Z,2.20
2019-06-20T17:28:05.994Z,2.35
2019-06-20T17:30:35.142Z,2.50
2019-06-20T17:33:07.521Z,1.93
2019-06-20T17:35:36.571Z,2.17
2019-06-20T17:38:05.488Z,2.67
2019-06-20T17:40:34.396Z,2.60
2019-06-20T17:43:03.305Z,2.33
2019-06-20T17:45:32.414Z,2.77
2019-06-20T17:48:02.641Z,2.40
2019-06-20T17:50:31.672Z,2.93
2019-06-20T17:53:00.650Z,2.73
2019-06-20T17:55:30.261Z,2.47
2019-06-20T17:57:59.168Z,3.00
2019-06-20T18:00:29.035Z,2.23
2019-06-20T18:02:59.125Z,2.33
2019-06-20T18:05:28.429Z,2.47
2019-06-20T18:07:57.990Z,2.23
2019-06-20T18:10:27.528Z,2.10
2019-06-20T18:12:56.815Z,1.97
2019-06-20T18:15:28.296Z,2.27
2019-06-20T18:17:57.291Z,3.13
2019-06-20T18:20:26.409Z,3.23
2019-06-20T18:22:55.251Z,2.80
2019-06-20T18:25:24.283Z,2.40
2019-06-20T18:27:55.181Z,2.02
2019-06-20T18:30:36.599Z,3.00
2019-06-20T18:33:10.090Z,2.52
2019-06-20T18:35:41.693Z,2.83
2019-06-20T18:38:17.115Z,2.90
2019-06-20T18:40:47.864Z,2.43
2019-06-20T18:43:18.478Z,2.33
2019-06-20T18:45:48.258Z,2.53
2019-06-20T18:48:18.379Z,2.63
2019-06-20T18:51:05.301Z,2.20
2019-06-20T18:53:43.775Z,2.50
2019-06-20T18:56:14.554Z,2.03
2019-06-20T18:58:43.729Z,2.50
2019-06-20T19:01:14.019Z,3.10
2019-06-20T19:03:43.621Z,3.00
2019-06-20T19:06:12.650Z,2.37
2019-06-20T19:08:41.510Z,2.43
2019-06-20T19:11:10.456Z,2.20
2019-06-20T19:13:44.078Z,2.40
2019-06-20T19:16:21.141Z,2.50
2019-06-20T19:18:50.095Z,2.67
2019-06-20T19:21:18.942Z,2.00
2019-06-20T19:23:48.239Z,2.67
2019-06-20T19:26:17.480Z,2.50
2019-06-20T19:28:46.254Z,2.80
2019-06-20T19:31:15.115Z,2.83
2019-06-20T19:33:44.007Z,2.67
2019-06-20T19:36:12.949Z,2.20
2019-06-20T19:38:42.871Z,2.57
2019-06-20T19:41:11.851Z,2.50
2019-06-20T19:43:40.748Z,2.33
2019-06-20T19:46:21.673Z,2.23
2019-06-20T19:48:57.594Z,2.37
2019-06-20T19:51:26.853Z,2.47
2019-06-20T19:53:55.722Z,2.70
2019-06-20T19:56:26.133Z,2.13
2019-06-20T19:58:55.133Z,2.03
2019-06-20T20:01:24.006Z,2.65
2019-06-20T20:03:55.963Z,2.73
2019-06-20T20:06:24.730Z,2.53
2019-06-20T20:08:53.545Z,2.50
2019-06-20T20:11:22.349Z,2.73
2019-06-20T20:13:51.152Z,2.87
2019-06-20T20:16:19.954Z,2.60
2019-06-20T20:18:48.742Z,3.10
2019-06-20T20:21:19.803Z,2.90
2019-06-20T20:23:48.637Z,2.57
2019-06-20T20:26:17.435Z,2.40
2019-06-20T20:28:46.482Z,2.47
2019-06-20T20:31:15.244Z,2.93
2019-06-20T20:33:43.991Z,2.93
2019-06-20T20:36:24.498Z,2.85
2019-06-20T20:38:44.173Z,2.50
2019-06-20T20:41:13.842Z,2.35
2019-06-20T20:43:42.573Z,2.30
2019-06-20T20:46:11.344Z,2.33
2019-06-20T20:48:40.198Z,2.90
2019-06-20T20:51:09.264Z,3.67
2019-06-20T20:53:38.006Z,2.80
2019-06-20T20:56:06.785Z,2.67
2019-06-20T20:58:35.543Z,2.83
2019-06-20T21:01:16.474Z,2.77
2019-06-20T21:03:52.855Z,2.30
2019-06-20T21:06:22.035Z,2.90
2019-06-20T21:08:50.811Z,2.57
2019-06-20T21:11:22.063Z,2.47
2019-06-20T21:13:51.709Z,2.97
2019-06-20T21:16:21.323Z,3.17
2019-06-20T21:18:51.685Z,3.13
2019-06-20T21:21:24.926Z,2.73
2019-06-20T21:23:56.276Z,3.20
2019-06-20T21:26:29.752Z,3.03
2019-06-20T21:28:58.604Z,2.77
2019-06-20T21:31:28.250Z,2.53
2019-06-20T21:33:57.072Z,2.50
2019-06-20T21:36:25.810Z,2.67
2019-06-20T21:38:54.570Z,3.33
2019-06-20T21:41:23.350Z,3.17
2019-06-20T21:43:52.113Z,3.47
2019-06-20T21:46:20.771Z,2.90
2019-06-20T21:48:49.687Z,3.23
2019-06-20T21:51:18.411Z,3.17
2019-06-20T21:53:47.158Z,3.72
2019-06-20T21:56:16.010Z,3.20
2019-06-20T21:58:45.165Z,3.03
2019-06-20T22:01:15.733Z,3.50
2019-06-20T22:03:44.607Z,3.50
2019-06-20T22:06:23.221Z,3.87
2019-06-20T22:08:43.907Z,3.80
2019-06-20T22:11:12.670Z,3.25
2019-06-20T22:13:43.029Z,3.10
2019-06-20T22:16:11.868Z,3.20
2019-06-20T22:18:40.635Z,3.27
2019-06-20T22:21:09.299Z,3.60
2019-06-20T22:23:38.045Z,3.50
2019-06-20T22:26:06.797Z,3.10
2019-06-20T22:28:35.523Z,3.10
2019-06-20T22:31:05.427Z,3.77
2019-06-20T22:33:34.154Z,3.30
2019-06-20T22:36:03.007Z,3.33
2019-06-20T22:38:31.781Z,3.77
2019-06-20T22:41:00.559Z,5.10
2019-06-20T22:43:29.353Z,4.90
2019-06-20T22:45:58.091Z,5.57
2019-06-20T22:48:26.814Z,6.03
2019-06-20T22:50:55.574Z,5.97
2019-06-20T22:53:24.409Z,5.77
2019-06-20T22:55:53.200Z,6.00
2019-06-20T22:58:21.926Z,7.28
2019-06-20T23:00:50.707Z,7.40
2019-06-20T23:03:19.454Z,7.62
2019-06-20T23:05:48.215Z,7.70
2019-06-20T23:08:17.003Z,7.67
2019-06-20T23:10:45.819Z,7.93
2019-06-20T23:13:14.630Z,8.80
2019-06-20T23:15:43.375Z,9.63
2019-06-20T23:18:12.112Z,8.47
2019-06-20T23:20:40.977Z,8.13
2019-06-20T23:23:09.751Z,8.73
2019-06-20T23:25:40.131Z,9.57
2019-06-20T23:28:08.857Z,8.98
2019-06-20T23:30:37.608Z,9.60
2019-06-20T23:33:09.431Z,10.40
2019-06-20T23:35:38.282Z,9.90
2019-06-20T23:38:07.033Z,10.63
2019-06-20T23:40:35.835Z,11.10
2019-06-20T23:43:05.218Z,10.50
2019-06-20T23:45:34.008Z,9.77
2019-06-20T23:48:02.879Z,10.93
2019-06-20T23:50:31.575Z,12.03
2019-06-20T23:53:07.989Z,11.80
2019-06-20T23:55:36.825Z,13.33
2019-06-20T23:58:05.621Z,12.20
